Tamworth, Virginia
Current Conditions -  °F | °C
As of 2:15 AM on Friday 19 Dec 2014 (Local Time) from KFVX Reporting Station
Overcast Overcast  
Wind Chill: 35°   Ceiling: 11000
Heat Index: 35°   Visibility: 10mi
Dew Point: 26°   Wind: 3mph
Humidity: 71%   Direction: 350°N
Pressure: 30.11"   Gusts: NA
Location:  37.6363°N, 78.1343°W
Report Text: KFVX 190715Z AUTO 35003KT 10SM OVC110 02/M03 A3011 RMK AO2 T00161032
Loading
Personal Weather Stations






























Interactive Weather Map New forecast layout! Learn more

10-Day Weather Forecast

Advertisements
Track Severe Weather on mobile